Time;durP1;ratioP1;P1;durP2;ratioP2;P2;SDS_P1;SDS_P2;PMS_P1;PMS_P2;Temp;Humidity;BMP_temperature;BMP_pressure;BME280_temperature;BME280_humidity;BME280_pressure;Samples;Min_cycle;Max_cycle;Signal;HPM_P1;HPM_P2
2021/12/24 00:01:58;;;;;;;402.40;65.07;;;6.60;99.90;;;;;;5085740;28;20032;-68
2021/12/24 00:04:24;;;;;;;371.30;66.22;;;6.60;99.90;;;;;;5100904;28;20475;-64
2021/12/24 00:06:51;;;;;;;377.73;61.42;;;6.60;99.90;;;;;;5092370;28;20040;-68
2021/12/24 00:09:23;;;;;;;372.73;56.38;;;6.70;99.90;;;;;;5094036;28;20036;-67
2021/12/24 00:11:51;;;;;;;354.17;58.25;;;6.70;99.90;;;;;;5091978;28;20032;-66
2021/12/24 00:14:17;;;;;;;362.45;58.72;;;6.70;99.90;;;;;;5091148;28;20390;-66
2021/12/24 00:16:48;;;;;;;396.42;64.70;;;6.80;99.90;;;;;;5090422;28;20041;-67
2021/12/24 00:35:40;;;;;;;306.20;55.17;;;7.00;99.90;;;;;;5092638;28;21678;-67
2021/12/24 00:38:08;;;;;;;282.02;46.10;;;6.90;99.90;;;;;;5097028;28;20502;-69
2021/12/24 00:40:40;;;;;;;319.90;53.75;;;7.00;99.90;;;;;;5097097;28;20036;-69
2021/12/24 00:43:06;;;;;;;278.30;56.10;;;7.00;99.90;;;;;;5093055;28;20039;-63
2021/12/24 00:45:39;;;;;;;314.65;56.38;;;7.00;99.90;;;;;;5087913;28;20044;-66
2021/12/24 00:48:06;;;;;;;310.48;57.42;;;7.10;99.90;;;;;;5083464;28;20141;-69
2021/12/24 00:50:47;;;;;;;294.02;55.08;;;7.10;99.90;;;;;;5095813;28;20110;-66
2021/12/24 00:56:01;;;;;;;267.80;45.03;;;7.10;99.90;;;;;;5090790;28;20039;-66
2021/12/24 00:58:27;;;;;;;244.80;50.53;;;7.10;99.90;;;;;;5064497;28;20036;-65
2021/12/24 01:00:52;;;;;;;269.92;45.85;;;7.10;99.90;;;;;;5089933;28;20044;-71
2021/12/24 01:03:18;;;;;;;233.18;49.45;;;7.10;99.90;;;;;;5092106;28;20454;-69
2021/12/24 01:05:44;;;;;;;245.07;49.72;;;7.10;99.90;;;;;;5099643;28;20050;-71
2021/12/24 01:08:12;;;;;;;260.02;49.33;;;7.10;99.90;;;;;;5074087;28;20040;-70
2021/12/24 01:10:43;;;;;;;245.18;43.70;;;7.10;99.90;;;;;;5089745;28;20046;-70
2021/12/24 01:13:08;;;;;;;248.45;49.05;;;7.20;99.90;;;;;;5084369;28;20536;-71
2021/12/24 01:15:38;;;;;;;270.67;51.10;;;7.20;99.90;;;;;;5091142;28;20032;-66
2021/12/24 01:18:15;;;;;;;257.50;45.95;;;7.20;99.90;;;;;;5090711;28;20097;-71
2021/12/24 01:20:46;;;;;;;259.00;49.45;;;7.20;99.90;;;;;;5088975;28;20044;-67
2021/12/24 01:23:31;;;;;;;191.48;44.10;;;7.20;99.90;;;;;;5087632;28;20032;-72
2021/12/24 01:26:02;;;;;;;234.45;44.17;;;7.30;99.90;;;;;;5090505;28;20044;-75
2021/12/24 01:44:29;;;;;;;175.43;41.15;;;7.50;99.90;;;;;;5086979;28;20144;-68
2021/12/24 01:46:57;;;;;;;185.45;40.05;;;7.50;99.90;;;;;;5081425;28;20131;-67
2021/12/24 01:49:24;;;;;;;194.95;41.83;;;7.50;99.90;;;;;;5073788;28;20040;-67
2021/12/24 01:51:50;;;;;;;167.88;41.78;;;7.50;99.90;;;;;;5083629;28;20048;-66
2021/12/24 01:54:16;;;;;;;148.20;39.42;;;7.60;99.90;;;;;;5081331;28;20049;-69
2021/12/24 01:56:43;;;;;;;192.75;38.42;;;7.60;99.90;;;;;;5097398;28;20052;-69
2021/12/24 01:59:08;;;;;;;187.13;39.67;;;7.60;99.90;;;;;;5088514;28;20032;-71
2021/12/24 02:01:34;;;;;;;191.80;39.58;;;7.60;99.90;;;;;;5091402;28;20489;-67
2021/12/24 02:04:00;;;;;;;188.82;40.65;;;7.70;99.90;;;;;;5072955;28;20051;-72
2021/12/24 02:06:25;;;;;;;200.57;41.80;;;7.70;99.90;;;;;;5086944;28;20043;-66
2021/12/24 02:08:54;;;;;;;173.98;43.17;;;7.70;99.90;;;;;;5090895;28;20127;-68
2021/12/24 02:11:20;;;;;;;173.15;41.80;;;7.80;99.90;;;;;;5074405;28;20184;-68
2021/12/24 02:13:46;;;;;;;170.02;39.05;;;7.90;99.90;;;;;;5089711;28;20317;-68
2021/12/24 02:16:22;;;;;;;180.98;39.95;;;7.80;99.90;;;;;;5090424;28;20032;-71
2021/12/24 02:29:55;;;;;;;217.73;42.47;;;8.00;99.90;;;;;;5087732;28;20502;-75
2021/12/24 02:32:21;;;;;;;197.20;39.20;;;8.00;99.90;;;;;;5090521;28;20043;-67
2021/12/24 02:34:47;;;;;;;172.55;37.35;;;8.10;99.90;;;;;;5072519;28;20051;-66
2021/12/24 02:37:14;;;;;;;227.25;42.80;;;8.20;99.90;;;;;;5073280;28;20050;-69
2021/12/24 02:39:40;;;;;;;198.75;39.20;;;8.20;99.90;;;;;;5072586;28;20512;-70
2021/12/24 02:42:11;;;;;;;189.02;41.05;;;8.20;99.90;;;;;;5089800;28;20127;-71
2021/12/24 02:44:37;;;;;;;221.88;41.90;;;8.20;99.90;;;;;;5093481;28;20406;-73
2021/12/24 02:47:35;;;;;;;186.43;38.78;;;8.20;99.90;;;;;;5090424;28;20032;-68
2021/12/24 02:55:13;;;;;;;182.57;35.67;;;8.30;99.90;;;;;;5081101;28;20261;-77
2021/12/24 02:57:40;;;;;;;181.15;34.55;;;8.30;99.90;;;;;;5067094;28;20040;-67
2021/12/24 03:00:19;;;;;;;200.40;36.05;;;8.30;99.90;;;;;;5090163;28;20033;-75
2021/12/24 03:02:46;;;;;;;79.38;19.75;;;8.30;99.90;;;;;;5070018;28;20059;-70
2021/12/24 03:05:14;;;;;;;115.93;26.05;;;8.30;99.90;;;;;;5087499;28;20039;-73
2021/12/24 03:07:40;;;;;;;94.10;23.13;;;8.40;99.90;;;;;;5087092;28;20105;-77
2021/12/24 03:10:12;;;;;;;86.35;20.38;;;8.40;99.90;;;;;;5089030;28;20036;-69
2021/12/24 03:12:38;;;;;;;69.68;17.38;;;8.50;99.90;;;;;;5065437;28;20032;-67
2021/12/24 03:15:05;;;;;;;85.03;22.25;;;8.50;99.90;;;;;;5080779;28;20036;-69
2021/12/24 03:17:31;;;;;;;84.75;19.63;;;8.50;99.90;;;;;;5083800;28;20058;-71
2021/12/24 03:20:04;;;;;;;92.32;21.38;;;8.50;99.90;;;;;;5073958;28;20546;-73
2021/12/24 03:24:55;;;;;;;61.25;15.50;;;8.60;99.90;;;;;;5089702;28;20097;-67
2021/12/24 03:27:22;;;;;;;60.35;15.00;;;8.60;99.90;;;;;;5097697;28;20131;-70
2021/12/24 03:29:49;;;;;;;79.45;22.23;;;8.60;99.90;;;;;;5075574;28;20044;-73
2021/12/24 03:32:14;;;;;;;85.53;22.10;;;8.60;99.90;;;;;;5101587;28;20383;-68
2021/12/24 03:34:40;;;;;;;73.85;19.55;;;8.60;99.90;;;;;;5085431;28;20035;-74
2021/12/24 03:37:06;;;;;;;123.90;30.95;;;8.60;99.90;;;;;;5081205;28;20040;-70
2021/12/24 03:39:32;;;;;;;106.47;25.42;;;8.60;99.90;;;;;;5098107;28;20082;-71
2021/12/24 03:41:57;;;;;;;88.95;24.45;;;8.60;99.90;;;;;;5091549;28;20057;-72
2021/12/24 03:44:32;;;;;;;74.60;18.25;;;8.60;99.90;;;;;;5087644;28;20437;-69
2021/12/24 03:47:05;;;;;;;97.07;26.13;;;8.70;99.90;;;;;;5086411;28;20139;-68
2021/12/24 03:49:37;;;;;;;93.40;23.30;;;8.80;99.90;;;;;;5075012;28;20193;-67
2021/12/24 03:52:22;;;;;;;126.15;33.65;;;8.80;99.90;;;;;;5088945;28;20514;-66
2021/12/24 03:54:58;;;;;;;100.65;27.13;;;8.80;99.90;;;;;;5092564;28;20088;-72
2021/12/24 03:57:26;;;;;;;106.43;27.55;;;8.90;99.90;;;;;;5087234;28;20478;-65
2021/12/24 03:59:52;;;;;;;84.57;23.63;;;8.90;99.90;;;;;;5092159;28;20398;-67
2021/12/24 04:02:18;;;;;;;112.90;30.33;;;8.90;99.90;;;;;;5090446;28;20074;-68
2021/12/24 04:04:44;;;;;;;127.30;35.90;;;8.90;99.90;;;;;;5092553;28;20059;-71
2021/12/24 04:07:09;;;;;;;121.85;29.33;;;8.80;99.90;;;;;;5087902;28;20126;-67
2021/12/24 04:09:37;;;;;;;132.80;35.90;;;8.80;99.90;;;;;;5086602;28;20036;-68
2021/12/24 04:12:04;;;;;;;135.68;36.67;;;8.80;99.90;;;;;;5094667;28;20434;-68
2021/12/24 04:14:30;;;;;;;134.85;32.25;;;8.80;99.90;;;;;;5092000;28;20036;-72
2021/12/24 04:16:55;;;;;;;128.32;30.80;;;8.80;99.90;;;;;;5089534;28;20444;-75
2021/12/24 04:24:53;;;;;;;112.43;28.20;;;8.70;99.90;;;;;;5084284;28;20058;-64
2021/12/24 04:27:21;;;;;;;155.90;36.88;;;8.80;99.90;;;;;;5075003;28;20040;-68
2021/12/24 04:29:47;;;;;;;83.15;20.73;;;8.70;99.90;;;;;;5090424;28;20071;-67
2021/12/24 04:32:17;;;;;;;134.25;29.42;;;8.70;99.90;;;;;;5093041;28;20078;-68
2021/12/24 04:34:46;;;;;;;114.15;29.05;;;8.70;99.90;;;;;;5091850;28;20043;-67
2021/12/24 04:37:34;;;;;;;122.55;33.63;;;8.60;99.90;;;;;;5092484;28;20040;-68
2021/12/24 04:51:19;;;;;;;151.63;35.13;;;8.60;99.90;;;;;;5090297;28;20043;-67
2021/12/24 05:04:37;;;;;;;119.30;29.23;;;8.70;99.90;;;;;;5092069;28;20046;-69
2021/12/24 05:07:27;;;;;;;132.93;32.78;;;8.70;99.90;;;;;;5083315;28;20119;-71
2021/12/24 05:09:53;;;;;;;106.70;24.70;;;8.70;99.90;;;;;;5085132;28;20060;-70
2021/12/24 05:12:18;;;;;;;138.32;31.92;;;8.70;99.90;;;;;;5091275;28;20039;-70
2021/12/24 05:14:44;;;;;;;86.10;21.42;;;8.70;99.90;;;;;;5108976;28;20048;-72
2021/12/24 05:17:44;;;;;;;121.75;28.13;;;8.80;99.90;;;;;;5074455;28;20036;-69
2021/12/24 05:22:54;;;;;;;117.15;28.67;;;8.80;99.90;;;;;;5087659;28;20051;-71
2021/12/24 05:25:20;;;;;;;133.52;31.35;;;8.80;99.90;;;;;;5091571;28;20397;-71
2021/12/24 05:27:46;;;;;;;112.38;28.80;;;8.80;99.90;;;;;;5091889;28;20490;-70
2021/12/24 05:30:12;;;;;;;118.82;28.77;;;8.80;99.90;;;;;;5091301;28;20034;-65
2021/12/24 05:32:37;;;;;;;82.10;22.70;;;8.90;99.90;;;;;;5073291;28;20058;-69
2021/12/24 05:35:04;;;;;;;107.90;27.58;;;8.80;99.90;;;;;;5091262;28;20474;-69
2021/12/24 05:37:29;;;;;;;108.20;28.58;;;8.80;99.90;;;;;;5087017;28;20044;-68
2021/12/24 05:39:55;;;;;;;121.65;31.65;;;8.80;99.90;;;;;;5079206;28;20391;-65
2021/12/24 05:42:22;;;;;;;141.82;33.03;;;8.80;99.90;;;;;;5095058;28;20409;-70
2021/12/24 05:44:48;;;;;;;126.00;31.00;;;8.80;99.90;;;;;;5090030;28;20036;-66
2021/12/24 05:47:14;;;;;;;106.85;28.00;;;8.70;99.90;;;;;;5082619;28;20414;-66
2021/12/24 05:49:41;;;;;;;136.48;33.17;;;8.70;99.90;;;;;;5094925;28;20040;-65
2021/12/24 05:52:07;;;;;;;148.85;32.80;;;8.70;99.90;;;;;;5089808;28;20114;-69
2021/12/24 05:54:33;;;;;;;82.90;22.10;;;8.60;99.90;;;;;;5091496;28;20147;-67
2021/12/24 05:56:58;;;;;;;99.43;25.58;;;8.60;99.90;;;;;;5077570;28;20036;-66
2021/12/24 05:59:24;;;;;;;89.55;23.20;;;8.60;99.90;;;;;;5087944;28;20067;-69
2021/12/24 06:01:49;;;;;;;125.10;28.30;;;8.60;99.90;;;;;;5073183;28;20036;-66
2021/12/24 06:04:15;;;;;;;128.55;28.95;;;8.50;99.90;;;;;;5089525;28;20130;-64
2021/12/24 06:06:40;;;;;;;110.47;29.92;;;8.50;99.90;;;;;;5090596;28;20044;-68
2021/12/24 06:09:06;;;;;;;101.18;25.98;;;8.50;99.90;;;;;;5091184;28;20043;-63
2021/12/24 06:11:32;;;;;;;113.18;28.15;;;8.50;99.90;;;;;;5087675;28;20040;-65
2021/12/24 06:13:57;;;;;;;96.97;26.20;;;8.50;99.90;;;;;;5095669;28;20103;-67
2021/12/24 06:16:23;;;;;;;118.97;26.48;;;8.50;99.90;;;;;;5106666;28;20089;-69
2021/12/24 06:18:49;;;;;;;102.43;26.52;;;8.50;99.90;;;;;;5090637;28;20123;-64
2021/12/24 06:21:14;;;;;;;101.28;24.55;;;8.50;99.90;;;;;;5080784;28;20094;-67
2021/12/24 06:23:43;;;;;;;95.63;26.63;;;8.50;99.90;;;;;;5090451;28;20039;-65
2021/12/24 06:26:08;;;;;;;112.45;24.38;;;8.50;99.90;;;;;;5088816;28;20115;-67
2021/12/24 06:28:35;;;;;;;83.03;22.30;;;8.50;99.90;;;;;;5105017;28;20118;-63
2021/12/24 06:31:02;;;;;;;108.68;26.55;;;8.40;99.90;;;;;;5089760;28;20044;-67
2021/12/24 06:33:28;;;;;;;75.05;19.10;;;8.40;99.90;;;;;;5090281;28;20429;-64
2021/12/24 06:35:56;;;;;;;103.13;26.75;;;8.50;99.90;;;;;;5090713;28;20055;-65
2021/12/24 06:38:22;;;;;;;89.28;25.00;;;8.40;99.90;;;;;;5089572;28;20052;-68
2021/12/24 06:40:48;;;;;;;106.28;24.60;;;8.50;99.90;;;;;;5102245;28;20028;-66
2021/12/24 06:43:13;;;;;;;69.13;17.05;;;8.50;99.90;;;;;;5105888;28;20081;-65
2021/12/24 06:45:39;;;;;;;87.97;23.90;;;8.40;99.90;;;;;;5072034;28;20044;-67
2021/12/24 06:48:05;;;;;;;95.45;26.33;;;8.50;99.90;;;;;;5090240;28;20044;-65
2021/12/24 06:50:32;;;;;;;87.78;21.52;;;8.50;99.90;;;;;;5089655;28;20039;-64
2021/12/24 06:52:57;;;;;;;92.85;23.35;;;8.40;99.90;;;;;;5090339;28;20123;-64
2021/12/24 06:55:25;;;;;;;90.07;20.38;;;8.50;99.90;;;;;;5071818;28;20114;-67
2021/12/24 06:57:51;;;;;;;98.00;24.77;;;8.50;99.90;;;;;;5090722;28;20078;-65
2021/12/24 07:00:20;;;;;;;93.50;21.40;;;8.50;99.90;;;;;;5088352;28;20118;-65
2021/12/24 07:02:46;;;;;;;66.57;16.50;;;8.50;99.90;;;;;;5089340;28;20058;-68
2021/12/24 07:05:12;;;;;;;84.75;22.17;;;8.60;99.90;;;;;;5089446;28;20494;-64
2021/12/24 07:07:38;;;;;;;76.55;16.77;;;8.50;99.90;;;;;;5088389;28;20433;-73
2021/12/24 07:10:05;;;;;;;86.85;20.17;;;8.50;99.90;;;;;;5093748;28;20036;-64
2021/12/24 07:12:31;;;;;;;76.10;17.85;;;8.50;99.90;;;;;;5085746;28;20131;-67
2021/12/24 07:14:57;;;;;;;63.30;20.33;;;8.50;99.90;;;;;;5080679;28;20036;-63
2021/12/24 07:17:23;;;;;;;77.20;19.80;;;8.60;99.90;;;;;;5088677;28;20043;-65
2021/12/24 07:19:49;;;;;;;74.35;18.85;;;8.60;99.90;;;;;;5087700;28;20032;-63
2021/12/24 07:22:17;;;;;;;71.78;17.55;;;8.60;99.90;;;;;;5084163;28;20055;-63
2021/12/24 07:24:43;;;;;;;74.10;18.85;;;8.60;99.90;;;;;;5083476;28;20040;-66
2021/12/24 07:27:09;;;;;;;88.13;20.65;;;8.60;99.90;;;;;;5078730;28;20079;-66
2021/12/24 07:29:34;;;;;;;65.07;16.70;;;8.50;99.90;;;;;;5089840;28;20473;-66
2021/12/24 07:32:00;;;;;;;55.67;14.63;;;8.50;99.90;;;;;;5093706;28;20036;-64
2021/12/24 07:34:28;;;;;;;70.20;14.90;;;8.60;99.90;;;;;;5090096;28;20040;-64
2021/12/24 07:36:54;;;;;;;55.67;14.43;;;8.60;99.90;;;;;;5090187;28;20043;-66
2021/12/24 07:39:19;;;;;;;75.70;16.73;;;8.60;99.90;;;;;;5088668;28;20386;-68
2021/12/24 07:41:46;;;;;;;67.07;15.63;;;8.60;99.90;;;;;;5089223;28;20049;-68
2021/12/24 07:44:12;;;;;;;79.85;18.25;;;8.60;99.90;;;;;;5089084;28;20459;-64
2021/12/24 07:46:45;;;;;;;76.95;19.30;;;8.50;99.90;;;;;;5085903;28;20044;-68
2021/12/24 07:54:23;;;;;;;102.22;20.83;;;8.40;99.90;;;;;;5092074;28;20051;-66
2021/12/24 07:56:49;;;;;;;76.47;18.40;;;8.40;99.90;;;;;;5085326;28;20036;-70
2021/12/24 07:59:15;;;;;;;64.60;16.48;;;8.30;99.90;;;;;;5088933;28;20028;-68
2021/12/24 08:01:45;;;;;;;90.50;21.63;;;8.30;99.90;;;;;;5087251;28;20046;-66
2021/12/24 08:04:11;;;;;;;68.18;16.65;;;8.30;99.90;;;;;;5089963;28;20067;-67
2021/12/24 08:06:37;;;;;;;76.07;18.60;;;8.30;99.90;;;;;;5081567;28;20578;-69
2021/12/24 08:09:06;;;;;;;84.15;19.48;;;8.30;99.90;;;;;;5080591;28;20127;-66
2021/12/24 08:11:36;;;;;;;90.63;21.65;;;8.30;99.90;;;;;;5091320;28;20059;-66
2021/12/24 08:14:02;;;;;;;85.82;20.13;;;8.30;99.90;;;;;;5096769;28;20050;-66
2021/12/24 08:16:29;;;;;;;112.07;22.60;;;8.30;99.90;;;;;;5092379;28;20044;-68
2021/12/24 08:18:55;;;;;;;95.55;20.80;;;8.20;99.90;;;;;;5069198;28;20044;-64
2021/12/24 08:21:21;;;;;;;85.28;19.20;;;8.20;99.90;;;;;;5087936;28;20039;-64
2021/12/24 08:23:47;;;;;;;95.97;20.90;;;8.20;99.90;;;;;;5091402;28;20032;-64
2021/12/24 08:26:13;;;;;;;83.97;18.48;;;8.20;99.90;;;;;;5092013;28;20047;-66
2021/12/24 08:28:39;;;;;;;97.72;18.85;;;8.20;99.90;;;;;;5091348;28;20111;-63
2021/12/24 08:31:05;;;;;;;91.57;18.67;;;8.20;99.90;;;;;;5092235;28;20123;-66
2021/12/24 08:33:33;;;;;;;94.30;18.38;;;8.30;99.90;;;;;;5085597;28;20052;-63
2021/12/24 08:35:59;;;;;;;73.00;18.23;;;8.20;99.90;;;;;;5092098;28;20516;-64
2021/12/24 08:38:25;;;;;;;84.85;16.92;;;8.30;99.90;;;;;;5086135;28;20036;-67
2021/12/24 08:40:50;;;;;;;77.78;17.70;;;8.20;99.90;;;;;;5071306;28;20060;-67
2021/12/24 08:43:16;;;;;;;64.15;14.93;;;8.30;99.90;;;;;;5083767;28;20081;-70
2021/12/24 08:45:41;;;;;;;78.38;16.20;;;8.30;99.90;;;;;;5104026;28;20051;-64
2021/12/24 08:48:07;;;;;;;90.28;19.27;;;8.20;99.90;;;;;;5100385;28;20098;-66
2021/12/24 08:50:35;;;;;;;77.55;16.92;;;8.20;99.90;;;;;;5092584;28;20044;-65
2021/12/24 08:53:00;;;;;;;81.57;15.02;;;8.20;99.90;;;;;;5092559;28;20036;-68
2021/12/24 08:55:26;;;;;;;81.38;15.93;;;8.20;99.90;;;;;;5090665;28;20375;-65
2021/12/24 08:57:51;;;;;;;78.55;13.80;;;8.10;99.90;;;;;;5095467;28;20067;-65
2021/12/24 09:00:19;;;;;;;75.80;15.15;;;8.20;99.90;;;;;;5088884;28;20093;-65
2021/12/24 09:02:45;;;;;;;72.57;13.75;;;8.20;99.90;;;;;;5088819;28;20078;-66
2021/12/24 09:05:12;;;;;;;76.72;13.00;;;8.10;99.90;;;;;;5073173;28;20035;-69
2021/12/24 09:07:38;;;;;;;72.78;15.10;;;8.20;99.90;;;;;;5084806;28;20383;-66
2021/12/24 09:10:05;;;;;;;79.55;13.68;;;8.20;99.90;;;;;;5076518;28;20051;-65
2021/12/24 09:12:30;;;;;;;89.18;15.55;;;8.20;99.90;;;;;;5081930;28;20027;-66
2021/12/24 09:14:56;;;;;;;75.00;14.57;;;8.20;99.90;;;;;;5111425;28;20096;-69
2021/12/24 09:17:22;;;;;;;75.13;13.13;;;8.20;99.90;;;;;;5106460;28;20039;-65
2021/12/24 09:19:50;;;;;;;77.68;11.77;;;8.30;99.90;;;;;;5101011;28;20085;-64
2021/12/24 09:22:18;;;;;;;74.68;13.18;;;8.30;99.90;;;;;;5112227;28;20084;-65
2021/12/24 09:24:49;;;;;;;69.13;12.70;;;8.30;99.90;;;;;;5092196;28;20059;-67
2021/12/24 09:27:15;;;;;;;63.35;12.77;;;8.30;99.90;;;;;;5092309;28;20048;-66
2021/12/24 09:29:42;;;;;;;66.50;13.07;;;8.30;99.90;;;;;;5089522;28;20043;-64
2021/12/24 09:32:08;;;;;;;63.22;12.10;;;8.40;99.90;;;;;;5091231;28;20044;-68
2021/12/24 09:34:34;;;;;;;51.70;9.05;;;8.40;99.90;;;;;;5089742;28;20055;-66
2021/12/24 09:36:59;;;;;;;67.18;12.25;;;8.40;99.90;;;;;;5091378;28;20035;-65
2021/12/24 09:39:25;;;;;;;71.57;13.25;;;8.40;99.90;;;;;;5082844;28;20170;-65
2021/12/24 09:41:50;;;;;;;80.75;15.65;;;8.40;99.90;;;;;;5072516;28;20483;-70
2021/12/24 09:44:16;;;;;;;79.78;14.07;;;8.40;99.90;;;;;;5072570;28;20044;-64
2021/12/24 09:46:43;;;;;;;74.70;13.02;;;8.40;99.90;;;;;;5090242;28;20032;-66
2021/12/24 09:49:13;;;;;;;63.75;11.82;;;8.40;99.90;;;;;;5086283;28;20036;-65
2021/12/24 09:51:41;;;;;;;62.55;12.20;;;8.50;99.90;;;;;;5085417;28;20510;-65
2021/12/24 09:54:16;;;;;;;71.28;14.32;;;8.50;99.90;;;;;;5078568;28;20062;-67
2021/12/24 09:56:44;;;;;;;74.30;13.40;;;8.50;99.90;;;;;;5087544;28;20040;-66
2021/12/24 09:59:09;;;;;;;65.57;13.43;;;8.50;99.90;;;;;;5091586;28;20067;-67
2021/12/24 10:01:53;;;;;;;46.50;9.25;;;8.50;99.90;;;;;;5089720;28;20090;-65
2021/12/24 10:04:20;;;;;;;61.20;14.00;;;8.60;99.90;;;;;;5080854;28;20044;-69
2021/12/24 10:06:54;;;;;;;61.03;12.85;;;8.50;99.90;;;;;;5085223;28;20093;-67
2021/12/24 10:09:27;;;;;;;80.25;14.68;;;8.50;99.90;;;;;;5086119;28;20123;-65
2021/12/24 10:11:57;;;;;;;;;;;8.50;99.90;;;;;;5086303;28;20040;-68
2021/12/24 10:14:34;;;;;;;66.82;12.80;;;8.50;99.90;;;;;;5090043;28;19931;-66
2021/12/24 10:17:01;;;;;;;56.33;10.90;;;8.50;99.90;;;;;;5087459;28;20036;-63
2021/12/24 10:19:27;;;;;;;52.38;12.10;;;8.50;99.90;;;;;;5088265;28;20032;-66
2021/12/24 10:21:59;;;;;;;65.32;13.45;;;8.50;99.90;;;;;;5098657;28;20058;-69
2021/12/24 10:24:26;;;;;;;66.32;12.88;;;8.50;99.90;;;;;;5085344;28;20036;-67
2021/12/24 10:26:58;;;;;;;63.50;10.00;;;8.60;99.90;;;;;;5090343;28;20081;-66
2021/12/24 10:29:34;;;;;;;48.43;12.60;;;8.60;99.90;;;;;;5068351;28;20042;-66
2021/12/24 10:32:10;;;;;;;48.38;11.90;;;8.60;99.90;;;;;;5088400;28;20036;-65
2021/12/24 10:34:39;;;;;;;35.80;9.25;;;8.60;99.90;;;;;;5081457;28;20040;-65
2021/12/24 10:37:18;;;;;;;52.35;13.30;;;8.60;99.90;;;;;;5084822;28;20157;-66
2021/12/24 10:40:00;;;;;;;44.20;10.18;;;8.70;99.90;;;;;;5069705;28;20036;-64
2021/12/24 10:42:36;;;;;;;51.72;10.13;;;8.70;99.90;;;;;;5092415;28;20028;-66
2021/12/24 10:45:08;;;;;;;45.42;9.98;;;8.70;99.90;;;;;;5090888;28;20406;-64
2021/12/24 10:47:38;;;;;;;55.33;8.85;;;8.70;99.90;;;;;;5088463;28;20036;-64
2021/12/24 10:55:21;;;;;;;57.17;11.90;;;8.80;99.90;;;;;;5091606;28;20044;-65
2021/12/24 10:58:12;;;;;;;83.75;14.15;;;8.70;99.90;;;;;;5074026;28;20036;-70
2021/12/24 11:00:46;;;;;;;48.53;11.27;;;8.80;99.90;;;;;;5091040;28;20043;-65
2021/12/24 11:03:26;;;;;;;47.05;10.02;;;8.80;99.90;;;;;;5072902;28;20032;-64
2021/12/24 11:06:16;;;;;;;51.10;10.32;;;8.80;99.90;;;;;;5089459;28;20044;-65
2021/12/24 11:08:43;;;;;;;51.30;10.02;;;8.80;99.90;;;;;;5068916;28;20110;-68
2021/12/24 11:11:15;;;;;;;41.30;8.65;;;8.80;99.90;;;;;;5087656;28;20376;-66
2021/12/24 11:13:42;;;;;;;;;;;8.80;99.90;;;;;;5080245;28;20048;-67
2021/12/24 11:16:10;;;;;;;52.55;10.07;;;8.80;99.90;;;;;;5090940;28;19920;-67
2021/12/24 11:18:39;;;;;;;48.47;11.98;;;8.80;99.90;;;;;;5101366;28;20036;-68
2021/12/24 11:21:09;;;;;;;39.45;9.70;;;8.80;99.90;;;;;;5091035;28;20101;-69
2021/12/24 11:23:37;;;;;;;33.88;8.20;;;8.80;99.90;;;;;;5090949;28;20040;-67
2021/12/24 11:26:12;;;;;;;23.13;6.45;;;8.90;99.90;;;;;;5086497;28;20120;-69
2021/12/24 11:28:39;;;;;;;26.77;5.40;;;8.90;99.90;;;;;;5091066;28;20122;-65
2021/12/24 11:31:10;;;;;;;24.70;6.18;;;8.90;99.90;;;;;;5089914;28;20052;-65
2021/12/24 11:33:37;;;;;;;17.48;5.35;;;8.80;99.90;;;;;;5092239;28;20486;-66
2021/12/24 11:36:06;;;;;;;15.18;3.97;;;8.80;99.90;;;;;;5103103;28;20050;-66
2021/12/24 11:38:39;;;;;;;17.60;3.85;;;8.70;99.90;;;;;;5085538;28;20444;-68
2021/12/24 11:41:10;;;;;;;9.65;3.72;;;8.70;99.90;;;;;;5088025;28;20032;-69
2021/12/24 11:43:41;;;;;;;15.95;3.60;;;8.70;99.90;;;;;;5090235;28;20072;-69
2021/12/24 11:46:09;;;;;;;19.38;4.30;;;8.60;99.90;;;;;;5088226;28;20516;-69
2021/12/24 11:48:35;;;;;;;5.22;1.95;;;8.50;99.90;;;;;;5090498;28;20051;-68
2021/12/24 11:51:06;;;;;;;6.75;2.20;;;8.50;99.90;;;;;;5068710;28;20419;-71
2021/12/24 11:53:33;;;;;;;2.42;1.58;;;8.30;99.90;;;;;;5100329;28;20173;-69
2021/12/24 11:56:08;;;;;;;10.18;2.97;;;8.10;99.90;;;;;;5082178;28;20040;-71
2021/12/24 11:58:52;;;;;;;6.85;2.15;;;7.90;99.90;;;;;;5089682;28;20039;-66
2021/12/24 12:01:19;;;;;;;3.33;1.58;;;7.70;99.90;;;;;;5085191;28;20485;-72
2021/12/24 12:03:53;;;;;;;6.85;2.38;;;7.60;99.90;;;;;;5091885;28;20052;-70
2021/12/24 12:06:22;;;;;;;5.70;2.33;;;7.50;99.90;;;;;;5104625;28;20382;-67
2021/12/24 12:08:50;;;;;;;5.43;2.08;;;7.40;99.90;;;;;;5089494;28;20512;-71
2021/12/24 12:11:20;;;;;;;5.30;2.35;;;7.40;99.90;;;;;;5078907;28;20408;-68
2021/12/24 12:17:23;;;;;;;4.47;2.30;;;7.20;99.90;;;;;;5094039;28;20125;-68
2021/12/24 12:19:58;;;;;;;6.20;1.92;;;7.20;99.90;;;;;;5070917;28;20093;-69
2021/12/24 12:22:44;;;;;;;4.82;2.80;;;7.20;99.90;;;;;;5095222;28;20036;-69
2021/12/24 12:25:31;;;;;;;5.68;2.85;;;7.20;99.90;;;;;;5094242;28;20101;-68
2021/12/24 12:27:59;;;;;;;5.53;2.95;;;7.10;99.90;;;;;;5093077;28;20032;-69
2021/12/24 12:31:01;;;;;;;5.32;2.92;;;7.20;99.90;;;;;;5093045;28;20047;-70
2021/12/24 12:33:37;;;;;;;6.25;2.75;;;7.20;99.90;;;;;;5087665;28;20078;-70
2021/12/24 12:36:04;;;;;;;5.43;3.05;;;7.20;99.90;;;;;;5094955;28;20055;-67
2021/12/24 12:38:35;;;;;;;4.80;3.28;;;7.20;99.90;;;;;;5093665;28;20036;-68
2021/12/24 12:41:34;;;;;;;6.10;3.13;;;7.20;99.90;;;;;;5093236;28;20513;-69
2021/12/24 12:44:06;;;;;;;7.10;3.40;;;7.30;99.90;;;;;;5081682;28;20043;-69
2021/12/24 12:46:34;;;;;;;6.20;3.40;;;7.20;99.90;;;;;;5110080;28;20051;-68
2021/12/24 12:49:03;;;;;;;7.57;4.07;;;7.30;99.90;;;;;;5100517;28;20415;-69
2021/12/24 12:51:53;;;;;;;5.10;2.90;;;7.30;99.90;;;;;;5093171;28;20040;-67
2021/12/24 12:54:35;;;;;;;6.55;3.63;;;7.40;99.90;;;;;;5094163;28;20127;-67
2021/12/24 12:57:12;;;;;;;10.52;3.85;;;7.40;99.90;;;;;;5092554;28;20032;-68
2021/12/24 12:59:40;;;;;;;11.40;4.28;;;7.30;99.90;;;;;;5092527;28;20056;-67
2021/12/24 13:02:06;;;;;;;6.10;3.33;;;7.30;99.90;;;;;;5092978;28;20410;-69
2021/12/24 13:04:31;;;;;;;9.20;4.18;;;7.30;99.90;;;;;;5090350;28;20031;-68
2021/12/24 13:06:58;;;;;;;8.93;3.90;;;7.30;99.90;;;;;;5081723;28;20494;-69
2021/12/24 13:09:32;;;;;;;6.28;3.47;;;7.30;99.90;;;;;;5098148;28;20510;-68
2021/12/24 13:11:59;;;;;;;11.00;4.20;;;7.30;99.90;;;;;;5090839;28;20032;-70
2021/12/24 13:14:28;;;;;;;8.60;4.00;;;7.30;99.90;;;;;;5088853;28;20052;-69
2021/12/24 13:17:17;;;;;;;5.78;3.65;;;7.30;99.90;;;;;;5091454;28;20482;-70
2021/12/24 13:22:32;;;;;;;6.03;2.50;;;7.30;99.90;;;;;;5094172;28;20105;-68
2021/12/24 13:25:00;;;;;;;5.45;2.67;;;7.30;99.90;;;;;;5107786;28;20074;-69
2021/12/24 13:27:30;;;;;;;5.63;2.47;;;7.20;99.90;;;;;;5080757;28;20114;-69
2021/12/24 13:30:10;;;;;;;5.95;3.13;;;7.20;99.90;;;;;;5092917;28;20417;-68
2021/12/24 13:32:38;;;;;;;6.65;3.22;;;7.20;99.90;;;;;;5079542;28;20040;-69
2021/12/24 13:35:04;;;;;;;8.35;3.20;;;7.10;99.90;;;;;;5078429;28;20094;-67
2021/12/24 13:37:31;;;;;;;7.60;3.65;;;7.00;99.90;;;;;;5090315;28;20070;-69
2021/12/24 13:39:57;;;;;;;9.70;4.45;;;7.00;99.90;;;;;;5073754;28;20483;-67
2021/12/24 13:42:22;;;;;;;17.73;6.07;;;7.10;99.90;;;;;;5091971;28;20055;-66
2021/12/24 13:44:49;;;;;;;28.35;9.23;;;6.90;99.90;;;;;;5076471;28;20122;-67
2021/12/24 13:47:26;;;;;;;37.17;8.55;;;6.90;99.90;;;;;;5092610;28;20134;-67
2021/12/24 13:55:20;;;;;;;13.65;5.82;;;6.80;99.90;;;;;;5077337;28;20036;-68
2021/12/24 13:57:58;;;;;;;37.42;10.82;;;6.80;99.90;;;;;;5086894;28;20625;-67
2021/12/24 14:00:25;;;;;;;21.52;8.13;;;6.80;99.90;;;;;;5075599;28;20033;-70
2021/12/24 14:02:59;;;;;;;7.28;3.83;;;6.80;99.90;;;;;;5083508;28;20040;-68
2021/12/24 14:05:26;;;;;;;6.68;4.13;;;6.80;99.90;;;;;;5066384;28;20446;-69
2021/12/24 14:08:06;;;;;;;12.02;6.82;;;6.80;99.90;;;;;;5091330;28;20039;-68
2021/12/24 14:10:32;;;;;;;9.40;5.22;;;6.80;99.90;;;;;;5088965;28;20071;-69
2021/12/24 14:13:05;;;;;;;9.55;4.72;;;6.70;99.90;;;;;;5075100;28;20363;-67
2021/12/24 14:15:32;;;;;;;10.15;4.88;;;6.80;99.90;;;;;;5086516;28;20054;-68
2021/12/24 14:18:21;;;;;;;8.60;4.53;;;6.70;99.90;;;;;;5087427;28;20039;-69
2021/12/24 14:23:46;;;;;;;9.07;4.50;;;6.70;99.90;;;;;;5048406;28;20051;-68
2021/12/24 14:26:12;;;;;;;11.38;4.95;;;6.70;99.90;;;;;;5088458;28;20040;-68
2021/12/24 14:28:51;;;;;;;8.50;4.65;;;6.60;99.90;;;;;;5087245;28;20178;-68
2021/12/24 14:31:17;;;;;;;8.50;4.10;;;6.60;99.90;;;;;;5078343;28;20044;-67
2021/12/24 14:33:47;;;;;;;8.32;4.43;;;6.70;99.90;;;;;;5091687;28;20042;-69
2021/12/24 14:36:18;;;;;;;10.32;5.38;;;6.70;99.90;;;;;;5082886;28;20035;-69
2021/12/24 14:38:43;;;;;;;10.00;5.03;;;6.60;99.90;;;;;;5089691;28;20131;-68